createdAt,value
2023-02-12T00:01:14.224Z,-12.87
2023-02-12T00:04:18.437Z,-12.84
2023-02-12T00:07:21.987Z,-12.80
2023-02-12T00:10:25.932Z,-12.75
2023-02-12T00:13:31.985Z,-12.60
2023-02-12T00:16:35.354Z,-12.62
2023-02-12T00:19:39.002Z,-12.67
2023-02-12T00:22:42.980Z,-12.61
2023-02-12T00:25:46.998Z,-12.63
2023-02-12T00:28:51.256Z,-12.58
2023-02-12T00:31:56.538Z,-12.46
2023-02-12T00:35:02.677Z,-12.34
2023-02-12T00:38:06.253Z,-12.19
2023-02-12T00:41:09.489Z,-12.05
2023-02-12T00:44:13.420Z,-11.71
2023-02-12T00:47:17.491Z,-11.34
2023-02-12T00:50:20.820Z,-10.83
2023-02-12T00:53:24.050Z,-10.28
2023-02-12T00:56:27.610Z,-9.98
2023-02-12T00:59:31.323Z,-9.80
2023-02-12T01:02:34.544Z,-9.54
2023-02-12T01:05:38.680Z,-9.34
2023-02-12T01:08:41.661Z,-9.12
2023-02-12T01:11:44.546Z,-8.94
2023-02-12T01:14:47.843Z,-8.58
2023-02-12T01:17:54.102Z,-8.40
2023-02-12T01:20:59.840Z,-8.07
2023-02-12T01:24:03.363Z,-7.87
2023-02-12T01:27:07.516Z,-7.51
2023-02-12T01:30:13.045Z,-7.04
2023-02-12T01:33:15.978Z,-6.99
2023-02-12T01:36:19.819Z,-7.05
2023-02-12T01:39:24.346Z,-7.04
2023-02-12T01:42:28.191Z,-6.78
2023-02-12T01:45:46.575Z,-6.73
2023-02-12T01:48:49.649Z,-6.62
2023-02-12T01:52:00.011Z,-6.26
2023-02-12T01:55:07.963Z,-6.34
2023-02-12T01:58:11.573Z,-6.63
2023-02-12T02:01:19.664Z,-6.80
2023-02-12T02:04:28.681Z,-6.88
2023-02-12T02:07:31.916Z,-6.85
2023-02-12T02:10:35.912Z,-6.62
2023-02-12T02:13:57.270Z,-6.41
2023-02-12T02:17:30.047Z,-6.25
2023-02-12T02:20:50.373Z,-5.98
2023-02-12T02:24:18.423Z,-5.45
2023-02-12T02:27:40.966Z,-5.51
2023-02-12T02:30:55.341Z,-5.66
2023-02-12T02:34:10.306Z,-5.19
2023-02-12T02:37:21.962Z,-4.83
2023-02-12T02:40:32.531Z,-4.94
2023-02-12T02:43:43.299Z,-4.92
2023-02-12T02:46:55.161Z,-4.93
2023-02-12T02:50:03.411Z,-4.82
2023-02-12T02:53:15.809Z,-4.36
2023-02-12T02:56:21.643Z,-4.28
2023-02-12T02:59:32.688Z,-4.22
2023-02-12T03:02:43.153Z,-4.24
2023-02-12T03:05:50.202Z,-4.05
2023-02-12T03:09:04.051Z,-4.01
2023-02-12T03:12:15.671Z,-3.79
2023-02-12T03:15:24.151Z,-3.75
2023-02-12T03:18:36.733Z,-3.84
2023-02-12T03:22:08.193Z,-3.76
2023-02-12T03:25:17.132Z,-3.79
2023-02-12T03:28:32.196Z,-3.51
2023-02-12T03:31:57.301Z,-3.05
2023-02-12T03:35:07.650Z,-3.01
2023-02-12T03:38:40.038Z,-2.91
2023-02-12T03:42:11.118Z,-3.22
2023-02-12T03:45:30.312Z,-3.33
2023-02-12T03:48:57.636Z,-3.33
2023-02-12T03:52:01.448Z,-3.63
2023-02-12T03:55:06.289Z,-3.73
2023-02-12T03:58:12.902Z,-3.89
2023-02-12T04:01:16.360Z,-4.19
2023-02-12T04:04:20.271Z,-4.10
2023-02-12T04:07:23.376Z,-4.02
2023-02-12T04:10:58.572Z,-3.54
2023-02-12T04:14:15.808Z,-3.24
2023-02-12T04:17:37.250Z,-3.20
2023-02-12T04:20:52.710Z,-2.99
2023-02-12T04:24:08.026Z,-2.87
2023-02-12T04:27:29.531Z,-3.19
2023-02-12T04:30:46.766Z,-3.24
2023-02-12T04:34:05.337Z,-3.89
2023-02-12T04:37:14.016Z,-3.80
2023-02-12T04:40:19.657Z,-3.51
2023-02-12T04:43:31.158Z,-3.62
2023-02-12T04:46:34.296Z,-3.99
2023-02-12T04:49:37.793Z,-4.10
2023-02-12T04:52:41.423Z,-3.91
2023-02-12T04:55:45.026Z,-3.88
2023-02-12T04:58:48.726Z,-3.73
2023-02-12T05:01:51.751Z,-3.59
2023-02-12T05:04:54.692Z,-3.77
2023-02-12T05:11:24.007Z,-4.04
2023-02-12T05:14:28.035Z,-4.04
2023-02-12T05:17:31.695Z,-3.98
2023-02-12T05:20:34.970Z,-4.18
2023-02-12T05:23:39.902Z,-4.09
2023-02-12T05:26:44.206Z,-4.18
2023-02-12T05:29:47.186Z,-4.47
2023-02-12T05:32:51.015Z,-4.53
2023-02-12T05:36:23.171Z,-4.71
2023-02-12T05:39:26.325Z,-4.76
2023-02-12T05:42:31.224Z,-4.71
2023-02-12T05:45:34.871Z,-4.55
2023-02-12T05:48:39.309Z,-4.60
2023-02-12T05:51:42.354Z,-4.64
2023-02-12T05:54:45.729Z,-4.58
2023-02-12T05:57:49.388Z,-4.56
2023-02-12T06:00:53.347Z,-4.82
2023-02-12T06:03:57.379Z,-4.86
2023-02-12T06:07:01.441Z,-4.87
2023-02-12T06:10:04.703Z,-4.92
2023-02-12T06:13:08.455Z,-4.85
2023-02-12T06:16:26.538Z,-4.85
2023-02-12T06:19:29.562Z,-4.98
2023-02-12T06:22:32.805Z,-5.04
2023-02-12T06:25:37.332Z,-5.21
2023-02-12T06:28:41.918Z,-5.31
2023-02-12T06:31:44.957Z,-5.19
2023-02-12T06:34:48.573Z,-5.33
2023-02-12T06:37:52.417Z,-5.19
2023-02-12T06:40:56.055Z,-5.00
2023-02-12T06:44:00.183Z,-4.98
2023-02-12T06:47:03.126Z,-4.76
2023-02-12T06:50:07.896Z,-4.62
2023-02-12T06:53:11.439Z,-4.47
2023-02-12T06:56:15.476Z,-4.53
2023-02-12T06:59:18.384Z,-4.83
2023-02-12T07:02:22.914Z,-5.14
2023-02-12T07:05:25.858Z,-5.04
2023-02-12T07:08:29.582Z,-4.87
2023-02-12T07:11:37.986Z,-4.80
2023-02-12T07:14:41.264Z,-4.89
2023-02-12T07:17:44.498Z,-4.73
2023-02-12T07:20:47.449Z,-4.93
2023-02-12T07:23:53.081Z,-5.03
2023-02-12T07:26:55.991Z,-5.01
2023-02-12T07:29:59.314Z,-4.87
2023-02-12T07:33:02.839Z,-4.86
2023-02-12T07:36:08.874Z,-4.72
2023-02-12T07:39:13.698Z,-4.58
2023-02-12T07:42:17.634Z,-4.47
2023-02-12T07:45:25.425Z,-4.45
2023-02-12T07:48:29.161Z,-4.30
2023-02-12T07:51:35.107Z,-4.16
2023-02-12T07:54:38.742Z,-4.36
2023-02-12T07:57:42.423Z,-4.65
2023-02-12T08:00:45.927Z,-4.75
2023-02-12T08:03:51.120Z,-4.83
2023-02-12T08:06:56.409Z,-4.88
2023-02-12T08:09:59.273Z,-5.07
2023-02-12T08:13:03.485Z,-5.07
2023-02-12T08:16:10.713Z,-4.94
2023-02-12T08:19:19.815Z,-4.94
2023-02-12T08:22:25.374Z,-4.95
2023-02-12T08:25:29.299Z,-5.04
2023-02-12T08:28:32.997Z,-5.04
2023-02-12T08:31:45.336Z,-5.09
2023-02-12T08:34:48.636Z,-5.11
2023-02-12T08:37:53.202Z,-5.14
2023-02-12T08:40:56.826Z,-5.11
2023-02-12T08:44:02.559Z,-5.20
2023-02-12T08:47:07.367Z,-5.31
2023-02-12T08:50:10.828Z,-5.23
2023-02-12T08:53:14.870Z,-5.23
2023-02-12T08:56:18.956Z,-5.26
2023-02-12T08:59:49.641Z,-5.44
2023-02-12T09:02:52.599Z,-5.51
2023-02-12T09:05:56.657Z,-5.59
2023-02-12T09:08:59.818Z,-5.68
2023-02-12T09:12:03.111Z,-5.73
2023-02-12T09:15:06.384Z,-5.76
2023-02-12T09:18:09.802Z,-5.93
2023-02-12T09:21:17.175Z,-6.01
2023-02-12T09:24:20.880Z,-6.14
2023-02-12T09:27:23.754Z,-6.27
2023-02-12T09:30:28.138Z,-6.35
2023-02-12T09:33:31.796Z,-6.43
2023-02-12T09:36:37.414Z,-6.57
2023-02-12T09:39:41.219Z,-6.71
2023-02-12T09:42:54.168Z,-6.85
2023-02-12T09:46:05.836Z,-6.96
2023-02-12T09:49:18.039Z,-6.95
2023-02-12T09:52:27.560Z,-7.06
2023-02-12T09:55:34.679Z,-7.08
2023-02-12T09:58:50.701Z,-7.11
2023-02-12T10:01:54.113Z,-7.10
2023-02-12T10:05:01.735Z,-7.01
2023-02-12T10:08:08.638Z,-7.08
2023-02-12T10:11:25.061Z,-7.16
2023-02-12T10:14:35.052Z,-7.14
2023-02-12T10:18:00.374Z,-7.17
2023-02-12T10:21:15.655Z,-7.19
2023-02-12T10:24:35.285Z,-7.26
2023-02-12T10:27:50.765Z,-7.29
2023-02-12T10:31:01.681Z,-7.35
2023-02-12T10:34:19.966Z,-7.37
2023-02-12T10:37:37.969Z,-7.38
2023-02-12T10:40:45.760Z,-7.47
2023-02-12T10:43:49.406Z,-7.46
2023-02-12T10:46:54.017Z,-7.45
2023-02-12T10:50:00.727Z,-7.44
2023-02-12T10:53:04.425Z,-7.49
2023-02-12T10:56:13.819Z,-7.51
2023-02-12T10:59:25.128Z,-7.51
2023-02-12T11:02:34.570Z,-7.65
2023-02-12T11:05:39.209Z,-7.61
2023-02-12T11:08:42.813Z,-7.64
2023-02-12T11:11:49.486Z,-7.67
2023-02-12T11:14:58.571Z,-7.70
2023-02-12T11:18:05.825Z,-7.68
2023-02-12T11:21:11.375Z,-7.77
2023-02-12T11:24:35.084Z,-7.82
2023-02-12T11:27:38.757Z,-7.81
2023-02-12T11:31:21.907Z,-7.77
2023-02-12T11:34:25.808Z,-7.77
2023-02-12T11:37:30.080Z,-7.80
2023-02-12T11:40:34.763Z,-7.80
2023-02-12T11:43:40.437Z,-7.82
2023-02-12T11:46:54.358Z,-7.82
2023-02-12T11:50:23.049Z,-8.01
2023-02-12T11:53:58.204Z,-8.06
2023-02-12T11:57:02.180Z,-7.98
2023-02-12T12:04:18.214Z,-7.88
2023-02-12T12:07:32.924Z,-7.92
2023-02-12T12:11:03.036Z,-8.18
2023-02-12T12:14:10.317Z,-8.32
2023-02-12T12:17:47.339Z,-8.38
2023-02-12T12:20:58.061Z,-8.30
2023-02-12T12:24:11.604Z,-8.31
2023-02-12T12:27:46.948Z,-8.39
2023-02-12T12:31:02.478Z,-8.59
2023-02-12T12:34:21.397Z,-8.72
2023-02-12T12:38:06.976Z,-8.79
2023-02-12T12:41:41.532Z,-8.45
2023-02-12T12:45:21.801Z,-8.34
2023-02-12T12:48:54.104Z,-8.54
2023-02-12T12:52:29.736Z,-8.58
2023-02-12T12:55:49.280Z,-8.54
2023-02-12T12:59:04.837Z,-8.47
2023-02-12T13:02:25.036Z,-8.39
2023-02-12T13:05:55.415Z,-8.42
2023-02-12T13:09:26.185Z,-8.50
2023-02-12T13:12:57.270Z,-8.48
2023-02-12T13:16:15.880Z,-8.43
2023-02-12T13:19:50.033Z,-8.51
2023-02-12T13:23:00.116Z,-8.47
2023-02-12T13:26:15.730Z,-8.60
2023-02-12T13:29:26.953Z,-8.67
2023-02-12T13:32:33.535Z,-8.68
2023-02-12T13:35:42.244Z,-8.69
2023-02-12T13:38:49.037Z,-8.64
2023-02-12T13:42:07.948Z,-8.49
2023-02-12T13:45:22.442Z,-8.49
2023-02-12T13:48:56.760Z,-8.68
2023-02-12T13:52:07.925Z,-8.67
2023-02-12T13:55:40.108Z,-8.59
2023-02-12T13:58:56.823Z,-8.57
2023-02-12T14:02:26.125Z,-8.45
2023-02-12T14:05:31.916Z,-8.49
2023-02-12T14:08:43.391Z,-8.57
2023-02-12T14:11:53.147Z,-8.54
2023-02-12T14:15:30.042Z,-8.62
2023-02-12T14:18:36.590Z,-8.66
2023-02-12T14:21:39.651Z,-8.63
2023-02-12T14:24:50.166Z,-8.61
2023-02-12T14:28:13.397Z,-8.65
2023-02-12T14:31:24.058Z,-8.65
2023-02-12T14:34:39.389Z,-8.70
2023-02-12T14:37:43.480Z,-8.85
2023-02-12T14:40:54.409Z,-8.88
2023-02-12T14:44:18.204Z,-8.87
2023-02-12T14:47:30.510Z,-8.87
2023-02-12T14:50:42.045Z,-8.90
2023-02-12T14:53:48.507Z,-8.89
2023-02-12T14:56:52.522Z,-8.86
2023-02-12T15:00:19.964Z,-8.86
2023-02-12T15:03:38.193Z,-8.86
2023-02-12T15:06:52.663Z,-8.83
2023-02-12T15:10:10.990Z,-8.88
2023-02-12T15:13:42.252Z,-8.97
2023-02-12T15:16:50.978Z,-9.07
2023-02-12T15:20:03.911Z,-9.18
2023-02-12T15:23:37.460Z,-9.07
2023-02-12T15:26:50.149Z,-8.96
2023-02-12T15:29:55.444Z,-8.96
2023-02-12T15:33:03.266Z,-8.91
2023-02-12T15:36:10.331Z,-8.91
2023-02-12T15:39:21.300Z,-9.01
2023-02-12T15:42:35.030Z,-9.04
2023-02-12T15:45:40.320Z,-9.11
2023-02-12T15:48:44.482Z,-9.22
2023-02-12T15:51:47.563Z,-9.25
2023-02-12T15:54:50.964Z,-9.31
2023-02-12T15:57:58.213Z,-9.28
2023-02-12T16:01:05.769Z,-9.36
2023-02-12T16:04:09.539Z,-9.29
2023-02-12T16:07:15.074Z,-9.20
2023-02-12T16:10:21.426Z,-9.30
2023-02-12T16:13:36.451Z,-9.20
2023-02-12T16:16:51.905Z,-9.18
2023-02-12T16:20:01.285Z,-9.23
2023-02-12T16:23:08.008Z,-9.21
2023-02-12T16:26:23.333Z,-9.29
2023-02-12T16:29:26.613Z,-9.34
2023-02-12T16:32:38.676Z,-9.36
2023-02-12T16:35:42.768Z,-9.45
2023-02-12T16:38:48.980Z,-9.50
2023-02-12T16:41:55.782Z,-9.50
2023-02-12T16:44:59.765Z,-9.46
2023-02-12T16:48:10.133Z,-9.49
2023-02-12T16:51:32.186Z,-9.50
2023-02-12T16:54:37.116Z,-9.52
2023-02-12T16:57:41.032Z,-9.54
2023-02-12T17:00:44.003Z,-9.49
2023-02-12T17:03:52.701Z,-9.47
2023-02-12T17:06:56.652Z,-9.48
2023-02-12T17:10:01.737Z,-9.44
2023-02-12T17:13:05.703Z,-9.42
2023-02-12T17:16:10.023Z,-9.40
2023-02-12T17:19:16.761Z,-9.37
2023-02-12T17:22:26.840Z,-9.43
2023-02-12T17:25:30.814Z,-9.53
2023-02-12T17:28:35.181Z,-9.67
2023-02-12T17:31:39.257Z,-9.67
2023-02-12T17:34:48.621Z,-9.69
2023-02-12T17:37:52.826Z,-9.69
2023-02-12T17:40:56.862Z,-9.66
2023-02-12T17:44:00.404Z,-9.67
2023-02-12T17:47:03.727Z,-9.77
2023-02-12T17:50:13.213Z,-9.93
2023-02-12T17:53:16.768Z,-9.96
2023-02-12T17:56:23.725Z,-9.93
2023-02-12T17:59:27.733Z,-9.94
2023-02-12T18:02:31.280Z,-10.00
2023-02-12T18:05:34.968Z,-10.08
2023-02-12T18:08:38.554Z,-10.16
2023-02-12T18:11:42.897Z,-10.10
2023-02-12T18:14:46.549Z,-10.11
2023-02-12T18:17:50.647Z,-10.18
2023-02-12T18:20:53.625Z,-10.21
2023-02-12T18:23:57.522Z,-10.20
2023-02-12T18:27:01.430Z,-10.17
2023-02-12T18:30:04.866Z,-10.09
2023-02-12T18:33:08.574Z,-10.01
2023-02-12T18:36:15.461Z,-9.97
2023-02-12T18:39:18.383Z,-9.89
2023-02-12T18:42:21.974Z,-9.86
2023-02-12T18:45:25.564Z,-9.87
2023-02-12T18:48:29.532Z,-9.85
2023-02-12T18:51:37.034Z,-9.75
2023-02-12T18:54:40.315Z,-9.75
2023-02-12T18:57:43.293Z,-9.73
2023-02-12T19:00:47.371Z,-9.72
2023-02-12T19:03:55.583Z,-9.72
2023-02-12T19:06:59.207Z,-9.73
2023-02-12T19:10:02.830Z,-9.76
2023-02-12T19:13:05.781Z,-9.80
2023-02-12T19:16:14.866Z,-9.79
2023-02-12T19:19:22.983Z,-9.86
2023-02-12T19:22:26.627Z,-9.87
2023-02-12T19:25:29.501Z,-9.87
2023-02-12T19:28:32.679Z,-9.82
2023-02-12T19:31:40.176Z,-9.79
2023-02-12T19:34:43.097Z,-9.86
2023-02-12T19:37:46.423Z,-9.93
2023-02-12T19:40:49.289Z,-9.99
2023-02-12T19:44:01.130Z,-9.96
2023-02-12T19:47:04.835Z,-9.86
2023-02-12T19:50:08.846Z,-9.90
2023-02-12T19:53:11.733Z,-10.01
2023-02-12T19:56:16.387Z,-10.01
2023-02-12T19:59:21.635Z,-9.94
2023-02-12T20:02:24.634Z,-10.00
2023-02-12T20:05:27.639Z,-10.02
2023-02-12T20:08:30.888Z,-10.05
2023-02-12T20:11:37.894Z,-10.03
2023-02-12T20:14:41.155Z,-10.00
2023-02-12T20:17:44.783Z,-10.02
2023-02-12T20:20:47.864Z,-10.13
2023-02-12T20:23:52.138Z,-10.15
2023-02-12T20:26:56.453Z,-10.28
2023-02-12T20:30:00.160Z,-10.29
2023-02-12T20:33:02.987Z,-10.18
2023-02-12T20:36:07.472Z,-10.16
2023-02-12T20:39:13.508Z,-10.25
2023-02-12T20:42:16.903Z,-10.27
2023-02-12T20:45:19.944Z,-10.30
2023-02-12T20:48:23.732Z,-10.30
2023-02-12T20:51:28.885Z,-10.25
2023-02-12T20:54:32.444Z,-10.29
2023-02-12T20:57:36.424Z,-10.33
2023-02-12T21:00:40.064Z,-10.38
2023-02-12T21:03:43.239Z,-10.41
2023-02-12T21:06:48.958Z,-10.44
2023-02-12T21:09:52.216Z,-10.42
2023-02-12T21:12:55.766Z,-10.36
2023-02-12T21:16:07.461Z,-10.28
2023-02-12T21:19:12.436Z,-10.32
2023-02-12T21:22:16.313Z,-10.26
2023-02-12T21:25:19.972Z,-10.25
2023-02-12T21:28:23.834Z,-10.22
2023-02-12T21:31:33.075Z,-10.22
2023-02-12T21:34:37.148Z,-10.27
2023-02-12T21:37:40.667Z,-10.23
2023-02-12T21:40:44.189Z,-10.24
2023-02-12T21:43:50.534Z,-10.22
2023-02-12T21:46:54.523Z,-10.23
2023-02-12T21:49:58.195Z,-10.18
2023-02-12T21:53:02.141Z,-10.21
2023-02-12T21:56:06.125Z,-10.27
2023-02-12T21:59:11.005Z,-10.29
2023-02-12T22:02:14.732Z,-10.34
2023-02-12T22:05:18.828Z,-10.38
2023-02-12T22:08:22.082Z,-10.46
2023-02-12T22:11:26.050Z,-10.50
2023-02-12T22:14:29.739Z,-10.54
2023-02-12T22:17:34.250Z,-10.54
2023-02-12T22:20:37.818Z,-10.44
2023-02-12T22:23:41.228Z,-10.44
2023-02-12T22:26:45.610Z,-10.42
2023-02-12T22:29:49.906Z,-10.35
2023-02-12T22:32:53.185Z,-10.34
2023-02-12T22:35:57.030Z,-10.32
2023-02-12T22:39:01.748Z,-10.30
2023-02-12T22:42:05.349Z,-10.39
2023-02-12T22:45:09.588Z,-10.40
2023-02-12T22:48:13.472Z,-10.48
2023-02-12T22:51:23.485Z,-10.44
2023-02-12T22:54:27.409Z,-10.49
2023-02-12T22:57:31.073Z,-10.60
2023-02-12T23:00:35.422Z,-10.71
2023-02-12T23:03:39.421Z,-10.80
2023-02-12T23:06:43.976Z,-10.87
2023-02-12T23:09:47.648Z,-10.87
2023-02-12T23:12:51.707Z,-10.85
2023-02-12T23:15:55.719Z,-10.82
2023-02-12T23:19:00.972Z,-10.77
2023-02-12T23:22:04.672Z,-10.71
2023-02-12T23:25:08.917Z,-10.65
2023-02-12T23:28:11.951Z,-10.61
2023-02-12T23:31:15.671Z,-10.59
2023-02-12T23:34:18.806Z,-10.59
2023-02-12T23:37:21.746Z,-10.59
2023-02-12T23:40:25.745Z,-10.58
2023-02-12T23:43:29.388Z,-10.77
2023-02-12T23:46:33.565Z,-11.11
2023-02-12T23:49:38.523Z,-11.27
2023-02-12T23:52:41.885Z,-11.35
2023-02-12T23:55:44.780Z,-11.25
2023-02-12T23:58:48.157Z,-11.20
